createdAt,value
2023-10-26T00:00:46.696Z,9.65
2023-10-26T00:03:14.741Z,10.82
2023-10-26T00:05:41.602Z,10.27
2023-10-26T00:08:08.853Z,10.73
2023-10-26T00:10:39.242Z,10.68
2023-10-26T00:13:05.948Z,10.60
2023-10-26T00:15:33.443Z,11.63
2023-10-26T00:18:00.363Z,11.45
2023-10-26T00:20:27.224Z,12.25
2023-10-26T00:22:56.820Z,11.10
2023-10-26T00:25:23.588Z,10.90
2023-10-26T00:27:52.678Z,12.32
2023-10-26T00:30:19.721Z,8.57
2023-10-26T00:32:47.058Z,10.68
2023-10-26T00:35:13.787Z,11.68
2023-10-26T00:37:43.230Z,11.88
2023-10-26T00:40:10.393Z,11.85
2023-10-26T00:42:37.211Z,13.38
2023-10-26T00:45:04.491Z,12.98
2023-10-26T00:47:34.679Z,11.57
2023-10-26T00:50:01.817Z,13.55
2023-10-26T00:52:29.086Z,12.98
2023-10-26T00:54:56.053Z,12.00
2023-10-26T00:57:24.766Z,10.65
2023-10-26T00:59:53.299Z,10.70
2023-10-26T01:02:21.217Z,10.43
2023-10-26T01:04:48.524Z,10.50
2023-10-26T01:07:16.596Z,10.00
2023-10-26T01:09:43.623Z,9.60
2023-10-26T01:12:10.994Z,9.55
2023-10-26T01:14:37.999Z,8.93
2023-10-26T01:17:04.772Z,9.73
2023-10-26T01:19:42.976Z,9.32
2023-10-26T01:22:11.147Z,10.85
2023-10-26T01:24:40.932Z,10.75
2023-10-26T01:27:08.429Z,10.52
2023-10-26T01:29:35.211Z,8.43
2023-10-26T01:32:02.076Z,10.63
2023-10-26T01:34:29.239Z,9.55
2023-10-26T01:36:55.944Z,8.75
2023-10-26T01:39:23.003Z,8.05
2023-10-26T01:41:51.909Z,9.73
2023-10-26T01:44:18.730Z,8.85
2023-10-26T01:46:45.493Z,9.52
2023-10-26T01:49:12.452Z,8.77
2023-10-26T01:51:43.425Z,9.02
2023-10-26T01:54:11.530Z,8.15
2023-10-26T01:56:39.627Z,9.35
2023-10-26T01:59:07.205Z,9.38
2023-10-26T02:01:34.025Z,9.73
2023-10-26T02:04:00.786Z,7.95
2023-10-26T02:06:27.786Z,10.02
2023-10-26T02:08:55.694Z,9.77
2023-10-26T02:11:22.985Z,9.88
2023-10-26T02:13:49.735Z,10.63
2023-10-26T02:16:19.119Z,9.80
2023-10-26T02:18:46.090Z,9.77
2023-10-26T02:21:13.111Z,10.82
2023-10-26T02:23:44.731Z,10.32
2023-10-26T02:26:14.697Z,9.02
2023-10-26T02:28:44.817Z,9.48
2023-10-26T02:31:18.900Z,8.77
2023-10-26T02:33:50.844Z,9.10
2023-10-26T02:36:18.608Z,8.48
2023-10-26T02:38:45.357Z,9.82
2023-10-26T02:41:13.117Z,10.48
2023-10-26T02:43:40.737Z,9.98
2023-10-26T02:46:07.577Z,10.43
2023-10-26T02:48:35.509Z,9.05
2023-10-26T02:51:02.829Z,10.20
2023-10-26T02:53:29.933Z,10.20
2023-10-26T02:55:56.717Z,10.23
2023-10-26T02:58:23.468Z,9.70
2023-10-26T03:00:56.434Z,10.10
2023-10-26T03:03:23.867Z,9.65
2023-10-26T03:05:52.148Z,9.73
2023-10-26T03:08:19.219Z,9.25
2023-10-26T03:10:45.978Z,9.45
2023-10-26T03:13:13.156Z,8.52
2023-10-26T03:15:39.884Z,9.70
2023-10-26T03:18:07.957Z,9.25
2023-10-26T03:20:34.963Z,10.68
2023-10-26T03:23:01.842Z,9.18
2023-10-26T03:25:28.672Z,9.32
2023-10-26T03:27:57.280Z,9.40
2023-10-26T03:30:24.117Z,8.65
2023-10-26T03:32:50.955Z,9.63
2023-10-26T03:35:17.754Z,9.27
2023-10-26T03:37:45.140Z,8.77
2023-10-26T03:40:14.508Z,8.70
2023-10-26T03:42:42.789Z,9.18
2023-10-26T03:45:11.131Z,8.75
2023-10-26T03:47:41.766Z,9.88
2023-10-26T03:50:08.801Z,9.93
2023-10-26T03:52:35.944Z,9.50
2023-10-26T03:55:03.347Z,9.80
2023-10-26T03:57:30.849Z,9.75
2023-10-26T03:59:57.703Z,9.82
2023-10-26T04:02:27.800Z,8.80
2023-10-26T04:04:57.293Z,9.20
2023-10-26T04:07:24.897Z,9.90
2023-10-26T04:09:52.754Z,9.18
2023-10-26T04:12:19.798Z,9.23
2023-10-26T04:14:49.269Z,9.95
2023-10-26T04:17:16.801Z,10.23
2023-10-26T04:19:43.586Z,9.07
2023-10-26T04:22:11.521Z,10.57
2023-10-26T04:24:39.482Z,11.43
2023-10-26T04:27:06.326Z,11.77
2023-10-26T04:29:35.768Z,11.85
2023-10-26T04:32:02.544Z,11.52
2023-10-26T04:34:31.111Z,10.93
2023-10-26T04:36:59.139Z,11.27
2023-10-26T04:39:28.783Z,11.90
2023-10-26T04:41:55.603Z,12.63
2023-10-26T04:44:22.696Z,12.32
2023-10-26T04:46:50.501Z,11.80
2023-10-26T04:49:17.305Z,12.93
2023-10-26T04:51:44.216Z,10.65
2023-10-26T04:54:11.017Z,11.25
2023-10-26T04:56:40.757Z,12.32
2023-10-26T04:59:09.090Z,11.77
2023-10-26T05:01:38.678Z,12.43
2023-10-26T05:04:05.901Z,12.95
2023-10-26T05:06:34.049Z,12.98
2023-10-26T05:09:00.991Z,12.20
2023-10-26T05:11:29.080Z,13.05
2023-10-26T05:13:55.943Z,12.70
2023-10-26T05:16:22.688Z,12.32
2023-10-26T05:18:49.479Z,12.77
2023-10-26T05:21:16.679Z,11.90
2023-10-26T05:23:44.937Z,12.93
2023-10-26T05:26:11.973Z,11.43
2023-10-26T05:28:41.628Z,13.02
2023-10-26T05:31:09.237Z,12.43
2023-10-26T05:33:36.020Z,12.27
2023-10-26T05:36:05.618Z,12.10
2023-10-26T05:38:32.577Z,13.80
2023-10-26T05:41:02.034Z,13.30
2023-10-26T05:43:32.014Z,13.60
2023-10-26T05:46:04.259Z,12.52
2023-10-26T05:48:35.316Z,14.90
2023-10-26T05:51:02.322Z,13.60
2023-10-26T05:53:35.482Z,13.70
2023-10-26T05:56:04.446Z,14.18
2023-10-26T05:58:34.602Z,14.90
2023-10-26T06:01:08.523Z,14.68
2023-10-26T06:03:35.242Z,13.68
2023-10-26T06:06:03.237Z,14.68
2023-10-26T06:08:30.383Z,14.57
2023-10-26T06:10:59.035Z,14.52
2023-10-26T06:13:25.908Z,14.32
2023-10-26T06:15:52.685Z,15.40
2023-10-26T06:18:19.552Z,15.07
2023-10-26T06:21:02.448Z,14.48
2023-10-26T06:23:29.400Z,13.68
2023-10-26T06:26:00.536Z,14.75
2023-10-26T06:28:27.896Z,14.55
2023-10-26T06:30:56.035Z,15.60
2023-10-26T06:33:23.212Z,15.45
2023-10-26T06:35:53.001Z,16.30
2023-10-26T06:38:19.762Z,13.27
2023-10-26T06:40:49.488Z,15.48
2023-10-26T06:43:16.525Z,16.08
2023-10-26T06:45:43.287Z,16.80
2023-10-26T06:48:10.105Z,17.70
2023-10-26T06:50:36.865Z,16.10
2023-10-26T06:53:03.602Z,17.30
2023-10-26T06:55:34.637Z,17.55
2023-10-26T06:58:01.441Z,17.98
2023-10-26T07:00:28.314Z,17.50
2023-10-26T07:02:58.180Z,17.00
2023-10-26T07:05:25.255Z,17.70
2023-10-26T07:07:52.032Z,15.98
2023-10-26T07:10:21.055Z,17.42
2023-10-26T07:12:48.312Z,17.83
2023-10-26T07:15:15.129Z,16.05
2023-10-26T07:17:41.912Z,16.15
2023-10-26T07:20:09.419Z,17.63
2023-10-26T07:22:36.942Z,17.60
2023-10-26T07:25:07.615Z,17.30
2023-10-26T07:27:34.417Z,17.30
2023-10-26T07:30:01.488Z,16.35
2023-10-26T07:32:40.809Z,16.27
2023-10-26T07:35:07.865Z,16.42
2023-10-26T07:37:34.796Z,16.98
2023-10-26T07:40:28.424Z,16.35
2023-10-26T07:42:49.564Z,17.33
2023-10-26T07:45:19.689Z,12.57
2023-10-26T07:47:49.814Z,15.45
2023-10-26T07:50:21.490Z,14.50
2023-10-26T07:52:51.206Z,15.38
2023-10-26T07:55:21.833Z,14.63
2023-10-26T07:57:51.526Z,16.10
2023-10-26T08:00:19.384Z,15.30
2023-10-26T08:02:46.275Z,15.27
2023-10-26T08:05:16.781Z,16.92
2023-10-26T08:07:48.442Z,16.10
2023-10-26T08:10:15.334Z,15.65
2023-10-26T08:12:42.217Z,15.00
2023-10-26T08:16:08.719Z,16.25
2023-10-26T08:17:58.894Z,16.83
2023-10-26T08:20:25.889Z,15.05
2023-10-26T08:22:52.633Z,16.15
2023-10-26T08:25:26.274Z,16.48
2023-10-26T08:27:53.220Z,16.80
2023-10-26T08:30:20.018Z,16.75
2023-10-26T08:32:47.256Z,18.08
2023-10-26T08:35:14.158Z,17.10
2023-10-26T08:37:41.584Z,18.58
2023-10-26T08:40:12.468Z,19.38
2023-10-26T08:42:44.551Z,17.48
2023-10-26T08:45:25.252Z,18.45
2023-10-26T08:47:52.569Z,19.13
2023-10-26T08:50:24.813Z,17.52
2023-10-26T08:52:52.511Z,18.13
2023-10-26T08:55:19.395Z,17.98
2023-10-26T08:57:52.741Z,17.75
2023-10-26T09:00:19.684Z,17.48
2023-10-26T09:02:50.631Z,17.23
2023-10-26T09:05:18.600Z,16.70
2023-10-26T09:07:45.559Z,16.95
2023-10-26T09:10:12.449Z,17.50
2023-10-26T09:12:39.189Z,18.00
2023-10-26T09:15:07.685Z,17.42
2023-10-26T09:17:35.220Z,15.48
2023-10-26T09:20:19.166Z,17.30
2023-10-26T09:22:46.212Z,17.50
2023-10-26T09:25:15.772Z,16.90
2023-10-26T09:27:44.220Z,17.00
2023-10-26T09:30:28.434Z,16.60
2023-10-26T09:32:57.557Z,16.52
2023-10-26T09:35:29.367Z,17.27
2023-10-26T09:37:57.442Z,17.35
2023-10-26T09:40:28.729Z,17.45
2023-10-26T09:42:59.473Z,17.00
2023-10-26T09:45:31.114Z,17.48
2023-10-26T09:47:58.863Z,17.70
2023-10-26T09:50:26.848Z,18.10
2023-10-26T09:52:54.944Z,18.15
2023-10-26T09:55:22.036Z,21.02
2023-10-26T09:57:53.092Z,20.77
2023-10-26T10:00:30.546Z,20.88
2023-10-26T10:03:23.687Z,21.65
2023-10-26T10:05:51.260Z,20.98
2023-10-26T10:08:55.695Z,21.83
2023-10-26T10:11:29.156Z,20.27
2023-10-26T10:13:56.114Z,21.63
2023-10-26T10:16:35.296Z,20.83
2023-10-26T10:19:22.174Z,22.13
2023-10-26T10:21:50.290Z,23.08
2023-10-26T10:24:43.867Z,21.35
2023-10-26T10:27:16.672Z,20.65
2023-10-26T10:29:43.838Z,21.77
2023-10-26T10:32:14.006Z,21.90
2023-10-26T10:34:45.597Z,20.73
2023-10-26T10:37:18.838Z,21.10
2023-10-26T10:40:15.067Z,19.63
2023-10-26T10:42:47.390Z,19.08
2023-10-26T10:45:14.298Z,18.50
2023-10-26T10:47:47.807Z,18.63
2023-10-26T10:50:22.768Z,18.50
2023-10-26T10:52:52.136Z,19.33
2023-10-26T10:55:21.393Z,18.25
2023-10-26T10:57:59.151Z,18.90
2023-10-26T11:00:28.623Z,18.05
2023-10-26T11:02:58.520Z,16.50
2023-10-26T11:05:39.233Z,17.20
2023-10-26T11:08:09.426Z,17.05
2023-10-26T11:10:37.101Z,18.50
2023-10-26T11:13:04.457Z,17.30
2023-10-26T11:15:38.596Z,16.75
2023-10-26T11:18:06.576Z,17.83
2023-10-26T11:20:34.114Z,17.80
2023-10-26T11:23:04.850Z,16.63
2023-10-26T11:25:31.753Z,16.15
2023-10-26T11:27:59.625Z,17.50
2023-10-26T11:30:27.688Z,17.75
2023-10-26T11:32:56.233Z,17.00
2023-10-26T11:35:28.597Z,16.88
2023-10-26T11:37:59.071Z,17.65
2023-10-26T11:40:32.745Z,18.73
2023-10-26T11:43:02.681Z,17.38
2023-10-26T11:45:51.486Z,16.60
2023-10-26T11:48:30.291Z,16.73
2023-10-26T11:50:57.066Z,16.98
2023-10-26T11:53:27.667Z,18.33
2023-10-26T11:55:54.512Z,16.67
2023-10-26T11:58:21.412Z,17.08
2023-10-26T12:00:48.207Z,17.13
2023-10-26T12:03:15.128Z,16.83
2023-10-26T12:05:41.943Z,17.10
2023-10-26T12:08:08.682Z,17.10
2023-10-26T12:10:35.591Z,16.92
2023-10-26T12:13:05.284Z,16.73
2023-10-26T12:15:42.053Z,16.20
2023-10-26T12:18:08.889Z,14.23
2023-10-26T12:20:35.570Z,13.82
2023-10-26T12:23:02.845Z,15.73
2023-10-26T12:25:29.655Z,15.63
2023-10-26T12:28:18.743Z,14.85
2023-10-26T12:30:44.580Z,15.23
2023-10-26T12:33:11.380Z,15.80
2023-10-26T12:35:38.145Z,13.32
2023-10-26T12:38:07.730Z,14.68
2023-10-26T12:40:35.555Z,14.73
2023-10-26T12:43:04.864Z,13.02
2023-10-26T12:45:31.828Z,13.95
2023-10-26T12:47:58.899Z,15.93
2023-10-26T12:50:25.728Z,12.95
2023-10-26T12:52:52.824Z,14.20
2023-10-26T12:55:21.971Z,14.25
2023-10-26T12:57:48.836Z,14.95
2023-10-26T13:00:15.898Z,15.30
2023-10-26T13:02:42.959Z,14.88
2023-10-26T13:05:09.804Z,14.30
2023-10-26T13:07:37.018Z,16.20
2023-10-26T13:10:04.475Z,15.57
2023-10-26T13:12:31.314Z,15.40
2023-10-26T13:15:11.012Z,15.10
2023-10-26T13:17:39.790Z,15.50
2023-10-26T13:20:07.405Z,15.98
2023-10-26T13:22:37.185Z,16.40
2023-10-26T13:25:04.847Z,16.58
2023-10-26T13:27:31.686Z,15.02
2023-10-26T13:30:01.154Z,16.25
2023-10-26T13:32:29.729Z,16.17
2023-10-26T13:34:59.188Z,16.52
2023-10-26T13:37:25.926Z,16.08
2023-10-26T13:39:55.518Z,15.35
2023-10-26T13:42:25.066Z,17.25
2023-10-26T13:44:51.766Z,15.52
2023-10-26T13:47:21.377Z,15.15
2023-10-26T13:49:48.092Z,15.60
2023-10-26T13:52:14.890Z,16.35
2023-10-26T13:54:41.691Z,15.43
2023-10-26T13:57:09.530Z,17.98
2023-10-26T13:59:38.579Z,16.83
2023-10-26T14:02:05.414Z,16.05
2023-10-26T14:04:37.436Z,16.40
2023-10-26T14:07:05.677Z,16.48
2023-10-26T14:09:33.145Z,14.70
2023-10-26T14:12:02.824Z,17.35
2023-10-26T14:14:30.994Z,18.10
2023-10-26T14:16:57.780Z,17.30
2023-10-26T14:19:24.984Z,18.35
2023-10-26T14:21:51.737Z,16.40
2023-10-26T14:24:19.061Z,16.55
2023-10-26T14:26:45.835Z,17.48
2023-10-26T14:29:13.929Z,18.52
2023-10-26T14:31:40.623Z,16.73
2023-10-26T14:34:07.466Z,19.25
2023-10-26T14:36:34.987Z,17.45
2023-10-26T14:39:01.767Z,18.08
2023-10-26T14:41:28.964Z,17.02
2023-10-26T14:43:55.684Z,18.10
2023-10-26T14:46:22.529Z,17.30
2023-10-26T14:48:49.668Z,17.15
2023-10-26T14:51:16.841Z,17.05
2023-10-26T14:53:43.584Z,17.00
2023-10-26T14:56:10.803Z,17.95
2023-10-26T14:58:37.554Z,16.58
2023-10-26T15:01:11.118Z,16.70
2023-10-26T15:03:38.131Z,16.23
2023-10-26T15:06:07.659Z,16.50
2023-10-26T15:08:34.929Z,16.73
2023-10-26T15:11:22.624Z,16.67
2023-10-26T15:13:48.704Z,15.95
2023-10-26T15:16:15.686Z,16.20
2023-10-26T15:18:42.723Z,17.23
2023-10-26T15:21:09.734Z,16.95
2023-10-26T15:23:39.757Z,17.05
2023-10-26T15:26:07.268Z,17.63
2023-10-26T15:28:34.387Z,16.95
2023-10-26T15:31:01.808Z,16.45
2023-10-26T15:33:29.113Z,15.52
2023-10-26T15:35:55.905Z,14.65
2023-10-26T15:38:27.357Z,14.57
2023-10-26T15:41:06.869Z,15.23
2023-10-26T15:43:34.563Z,14.80
2023-10-26T15:46:04.996Z,15.88
2023-10-26T15:49:31.306Z,14.95
2023-10-26T15:51:25.115Z,15.25
2023-10-26T15:53:51.869Z,14.60
2023-10-26T15:56:21.336Z,15.40
2023-10-26T15:58:51.562Z,16.02
2023-10-26T16:01:20.133Z,16.73
2023-10-26T16:03:49.880Z,15.80
2023-10-26T16:06:23.543Z,17.05
2023-10-26T16:08:52.228Z,17.02
2023-10-26T16:11:21.721Z,18.10
2023-10-26T16:13:49.646Z,18.85
2023-10-26T16:16:18.277Z,17.85
2023-10-26T16:18:51.839Z,18.13
2023-10-26T16:21:18.956Z,20.08
2023-10-26T16:23:45.812Z,19.40
2023-10-26T16:26:13.091Z,18.45
2023-10-26T16:28:40.006Z,19.25
2023-10-26T16:31:07.072Z,18.52
2023-10-26T16:33:34.237Z,18.80
2023-10-26T16:36:01.096Z,20.38
2023-10-26T16:38:27.930Z,20.83
2023-10-26T16:40:55.173Z,23.35
2023-10-26T16:43:22.390Z,26.38
2023-10-26T16:45:49.442Z,31.40
2023-10-26T16:48:17.433Z,38.13
2023-10-26T16:50:45.042Z,41.35
2023-10-26T16:53:29.707Z,35.53
2023-10-26T16:56:01.392Z,38.22
2023-10-26T16:58:29.385Z,38.08
2023-10-26T17:00:59.781Z,35.58
2023-10-26T17:03:27.815Z,32.38
2023-10-26T17:05:54.754Z,32.35
2023-10-26T17:08:22.179Z,32.50
2023-10-26T17:10:49.579Z,30.77
2023-10-26T17:13:19.220Z,31.80
2023-10-26T17:15:50.659Z,31.45
2023-10-26T17:18:17.454Z,28.80
2023-10-26T17:20:57.054Z,28.48
2023-10-26T17:23:24.558Z,26.52
2023-10-26T17:25:57.519Z,27.45
2023-10-26T17:28:25.499Z,28.23
2023-10-26T17:30:52.283Z,28.33
2023-10-26T17:33:19.120Z,23.88
2023-10-26T17:35:49.143Z,26.45
2023-10-26T17:38:16.218Z,25.65
2023-10-26T17:40:44.833Z,26.40
2023-10-26T17:43:14.037Z,26.00
2023-10-26T17:45:45.289Z,26.02
2023-10-26T17:48:12.229Z,24.63
2023-10-26T17:50:41.886Z,25.50
2023-10-26T17:53:09.605Z,26.40
2023-10-26T17:55:37.044Z,24.50
2023-10-26T17:58:03.827Z,24.15
2023-10-26T18:00:31.445Z,21.80
2023-10-26T18:02:58.158Z,22.70
2023-10-26T18:05:24.933Z,22.33
2023-10-26T18:07:55.292Z,22.08
2023-10-26T18:10:22.230Z,21.70
2023-10-26T18:12:49.327Z,22.70
2023-10-26T18:15:16.326Z,21.25
2023-10-26T18:17:43.161Z,23.00
2023-10-26T18:20:12.812Z,22.40
2023-10-26T18:22:40.471Z,22.17
2023-10-26T18:25:07.552Z,21.58
2023-10-26T18:27:37.769Z,22.27
2023-10-26T18:30:05.875Z,21.80
2023-10-26T18:32:34.868Z,22.67
2023-10-26T18:35:03.899Z,24.48
2023-10-26T18:37:30.867Z,24.52
2023-10-26T18:39:58.294Z,23.13
2023-10-26T18:42:25.148Z,24.25
2023-10-26T18:44:52.720Z,23.40
2023-10-26T18:47:19.555Z,25.55
2023-10-26T18:49:49.176Z,23.13
2023-10-26T18:52:15.904Z,23.50
2023-10-26T18:54:42.772Z,24.77
2023-10-26T18:57:09.757Z,23.77
2023-10-26T18:59:38.721Z,23.58
2023-10-26T19:02:08.972Z,22.67
2023-10-26T19:04:38.741Z,22.35
2023-10-26T19:07:09.010Z,23.67
2023-10-26T19:09:39.025Z,23.63
2023-10-26T19:12:09.190Z,23.45
2023-10-26T19:14:39.016Z,23.67
2023-10-26T19:17:05.897Z,23.42
2023-10-26T19:19:33.030Z,22.85
2023-10-26T19:22:00.875Z,23.45
2023-10-26T19:24:27.836Z,24.05
2023-10-26T19:26:54.584Z,23.40
2023-10-26T19:29:21.359Z,23.02
2023-10-26T19:31:48.457Z,23.15
2023-10-26T19:34:15.261Z,24.48
2023-10-26T19:36:44.760Z,23.67
2023-10-26T19:39:11.480Z,22.98
2023-10-26T19:41:40.948Z,23.92
2023-10-26T19:44:08.638Z,25.77
2023-10-26T19:46:39.641Z,24.60
2023-10-26T19:49:09.117Z,24.75
2023-10-26T19:51:35.920Z,24.60
2023-10-26T19:54:05.901Z,24.95
2023-10-26T19:56:35.839Z,25.33
2023-10-26T19:59:02.881Z,27.30
2023-10-26T20:01:29.866Z,25.75
2023-10-26T20:03:57.028Z,26.08
2023-10-26T20:06:25.143Z,26.20
2023-10-26T20:08:51.965Z,25.70
2023-10-26T20:11:18.723Z,28.40
2023-10-26T20:13:48.024Z,25.88
2023-10-26T20:16:15.478Z,24.98
2023-10-26T20:18:42.367Z,24.05
2023-10-26T20:21:09.372Z,25.63
2023-10-26T20:23:39.208Z,24.83
2023-10-26T20:26:06.024Z,24.98
2023-10-26T20:28:32.821Z,23.88
2023-10-26T20:30:59.638Z,25.25
2023-10-26T20:33:26.844Z,24.75
2023-10-26T20:35:53.692Z,26.10
2023-10-26T20:38:20.990Z,26.13
2023-10-26T20:40:47.785Z,24.35
2023-10-26T20:43:14.841Z,24.85
2023-10-26T20:45:41.671Z,25.27
2023-10-26T20:48:08.974Z,26.08
2023-10-26T20:50:35.804Z,26.73
2023-10-26T20:53:02.889Z,27.73
2023-10-26T20:55:32.858Z,24.30
2023-10-26T20:57:59.585Z,24.25
2023-10-26T21:00:26.745Z,27.08
2023-10-26T21:02:58.513Z,25.55
2023-10-26T21:05:28.769Z,24.40
2023-10-26T21:07:56.544Z,24.90
2023-10-26T21:10:26.745Z,25.40
2023-10-26T21:12:53.675Z,25.63
2023-10-26T21:15:21.842Z,23.90
2023-10-26T21:17:49.054Z,23.95
2023-10-26T21:20:15.883Z,25.50
2023-10-26T21:22:42.673Z,25.02
2023-10-26T21:25:09.699Z,25.08
2023-10-26T21:27:36.990Z,25.73
2023-10-26T21:30:04.249Z,25.15
2023-10-26T21:32:31.665Z,24.00
2023-10-26T21:34:58.997Z,24.98
2023-10-26T21:37:25.675Z,24.38
2023-10-26T21:39:55.224Z,26.98
2023-10-26T21:42:25.925Z,24.40
2023-10-26T21:44:53.702Z,23.00
2023-10-26T21:47:23.242Z,22.77
2023-10-26T21:49:49.943Z,24.05
2023-10-26T21:52:19.531Z,24.15
2023-10-26T21:54:47.774Z,24.63
2023-10-26T21:57:15.058Z,23.55
2023-10-26T21:59:42.388Z,22.30
2023-10-26T22:02:10.248Z,24.48
2023-10-26T22:04:37.109Z,22.45
2023-10-26T22:07:04.191Z,22.92
2023-10-26T22:09:33.665Z,23.80
2023-10-26T22:12:02.799Z,22.27
2023-10-26T22:14:29.754Z,22.52
2023-10-26T22:16:56.811Z,22.77
2023-10-26T22:19:26.707Z,21.70
2023-10-26T22:21:53.595Z,23.02
2023-10-26T22:24:20.803Z,24.42
2023-10-26T22:26:47.550Z,23.30
2023-10-26T22:29:29.421Z,24.63
2023-10-26T22:31:56.814Z,22.98
2023-10-26T22:34:23.728Z,21.88
2023-10-26T22:36:50.882Z,22.63
2023-10-26T22:39:17.763Z,23.08
2023-10-26T22:41:46.625Z,22.08
2023-10-26T22:44:13.438Z,23.92
2023-10-26T22:46:40.814Z,24.35
2023-10-26T22:49:07.617Z,23.95
2023-10-26T22:51:37.192Z,20.65
2023-10-26T22:54:04.117Z,23.42
2023-10-26T22:56:33.612Z,25.27
2023-10-26T22:59:01.006Z,23.17
2023-10-26T23:01:27.816Z,23.05
2023-10-26T23:03:55.508Z,20.75
2023-10-26T23:06:23.876Z,21.92
2023-10-26T23:08:53.555Z,21.85
2023-10-26T23:11:20.742Z,20.52
2023-10-26T23:13:47.639Z,21.85
2023-10-26T23:16:14.680Z,21.92
2023-10-26T23:18:44.214Z,22.17
2023-10-26T23:21:11.011Z,22.30
2023-10-26T23:23:42.272Z,22.40
2023-10-26T23:26:09.489Z,21.20
2023-10-26T23:28:36.333Z,20.90
2023-10-26T23:31:09.288Z,22.23
2023-10-26T23:33:36.374Z,21.25
2023-10-26T23:36:07.107Z,21.35
2023-10-26T23:38:37.122Z,22.50
2023-10-26T23:41:07.135Z,20.40
2023-10-26T23:43:36.811Z,22.27
2023-10-26T23:46:03.831Z,22.95
2023-10-26T23:48:30.920Z,21.90
2023-10-26T23:50:57.812Z,21.38
2023-10-26T23:53:27.326Z,21.25
2023-10-26T23:55:56.811Z,21.33
2023-10-26T23:58:24.525Z,20.05
